sensor_id;sensor_type;location;lat;lon;timestamp;temperature;humidity
52044;DHT22;38053;53.100;6.078;2023-09-19T00:01:23;13.30;99.90
52044;DHT22;38053;53.100;6.078;2023-09-19T00:03:50;13.30;99.90
52044;DHT22;38053;53.100;6.078;2023-09-19T00:06:16;13.30;99.90
52044;DHT22;38053;53.100;6.078;2023-09-19T00:08:42;13.30;99.90
52044;DHT22;38053;53.100;6.078;2023-09-19T00:11:16;13.20;99.90
52044;DHT22;38053;53.100;6.078;2023-09-19T00:13:42;13.20;99.90
52044;DHT22;38053;53.100;6.078;2023-09-19T00:16:13;13.20;99.90
52044;DHT22;38053;53.100;6.078;2023-09-19T00:18:40;13.20;99.90
52044;DHT22;38053;53.100;6.078;2023-09-19T00:21:06;13.10;99.90
52044;DHT22;38053;53.100;6.078;2023-09-19T00:23:32;13.20;99.90
52044;DHT22;38053;53.100;6.078;2023-09-19T00:26:01;13.20;99.90
52044;DHT22;38053;53.100;6.078;2023-09-19T00:28:27;13.10;99.90
52044;DHT22;38053;53.100;6.078;2023-09-19T00:30:53;13.20;99.90
52044;DHT22;38053;53.100;6.078;2023-09-19T00:33:24;13.10;99.90
52044;DHT22;38053;53.100;6.078;2023-09-19T00:35:51;13.10;99.90
52044;DHT22;38053;53.100;6.078;2023-09-19T00:38:21;13.10;99.90
52044;DHT22;38053;53.100;6.078;2023-09-19T00:40:50;13.10;99.90
52044;DHT22;38053;53.100;6.078;2023-09-19T00:43:16;13.00;99.90
52044;DHT22;38053;53.100;6.078;2023-09-19T00:45:44;13.00;99.90
52044;DHT22;38053;53.100;6.078;2023-09-19T00:48:17;13.00;99.90
52044;DHT22;38053;53.100;6.078;2023-09-19T00:50:46;13.00;99.90
52044;DHT22;38053;53.100;6.078;2023-09-19T00:53:15;12.90;99.90
52044;DHT22;38053;53.100;6.078;2023-09-19T00:55:44;12.90;99.90
52044;DHT22;38053;53.100;6.078;2023-09-19T00:58:11;12.80;99.90
52044;DHT22;38053;53.100;6.078;2023-09-19T01:00:37;12.80;99.90
52044;DHT22;38053;53.100;6.078;2023-09-19T01:03:05;12.80;99.90
52044;DHT22;38053;53.100;6.078;2023-09-19T01:05:33;12.80;99.90
52044;DHT22;38053;53.100;6.078;2023-09-19T01:07:59;12.70;99.90
52044;DHT22;38053;53.100;6.078;2023-09-19T01:10:25;12.70;99.90
52044;DHT22;38053;53.100;6.078;2023-09-19T01:13:05;12.70;99.90
52044;DHT22;38053;53.100;6.078;2023-09-19T01:16:31;12.60;99.90
52044;DHT22;38053;53.100;6.078;2023-09-19T01:19:01;12.60;99.90
52044;DHT22;38053;53.100;6.078;2023-09-19T01:30:10;12.50;99.90
52044;DHT22;38053;53.100;6.078;2023-09-19T01:32:37;12.50;99.90
52044;DHT22;38053;53.100;6.078;2023-09-19T01:35:04;12.50;99.90
52044;DHT22;38053;53.100;6.078;2023-09-19T01:37:31;12.50;99.90
52044;DHT22;38053;53.100;6.078;2023-09-19T01:43:36;12.50;99.90
52044;DHT22;38053;53.100;6.078;2023-09-19T01:46:24;12.50;99.90
52044;DHT22;38053;53.100;6.078;2023-09-19T01:51:40;12.40;99.90
52044;DHT22;38053;53.100;6.078;2023-09-19T01:54:11;12.50;99.90
52044;DHT22;38053;53.100;6.078;2023-09-19T01:56:53;12.40;99.90
52044;DHT22;38053;53.100;6.078;2023-09-19T01:59:31;12.40;99.90
52044;DHT22;38053;53.100;6.078;2023-09-19T02:02:00;12.40;99.90
52044;DHT22;38053;53.100;6.078;2023-09-19T02:04:26;12.40;99.90
52044;DHT22;38053;53.100;6.078;2023-09-19T02:06:53;12.40;99.90
52044;DHT22;38053;53.100;6.078;2023-09-19T02:09:18;12.40;99.90
52044;DHT22;38053;53.100;6.078;2023-09-19T02:11:44;12.40;99.90
52044;DHT22;38053;53.100;6.078;2023-09-19T02:14:10;12.40;99.90
52044;DHT22;38053;53.100;6.078;2023-09-19T02:16:36;12.40;99.90
52044;DHT22;38053;53.100;6.078;2023-09-19T02:19:01;12.40;99.90
52044;DHT22;38053;53.100;6.078;2023-09-19T02:21:31;12.40;99.90
52044;DHT22;38053;53.100;6.078;2023-09-19T02:23:57;12.40;99.90
52044;DHT22;38053;53.100;6.078;2023-09-19T02:26:24;12.40;99.90
52044;DHT22;38053;53.100;6.078;2023-09-19T02:28:50;12.40;99.90
52044;DHT22;38053;53.100;6.078;2023-09-19T02:31:16;12.40;99.90
52044;DHT22;38053;53.100;6.078;2023-09-19T02:33:42;12.40;99.90
52044;DHT22;38053;53.100;6.078;2023-09-19T02:36:08;12.50;99.90
52044;DHT22;38053;53.100;6.078;2023-09-19T02:38:34;12.50;99.90
52044;DHT22;38053;53.100;6.078;2023-09-19T02:41:00;12.50;99.90
52044;DHT22;38053;53.100;6.078;2023-09-19T02:43:27;12.50;99.90
52044;DHT22;38053;53.100;6.078;2023-09-19T02:45:53;12.60;99.90
52044;DHT22;38053;53.100;6.078;2023-09-19T02:48:19;12.60;99.90
52044;DHT22;38053;53.100;6.078;2023-09-19T02:50:45;12.60;99.90
52044;DHT22;38053;53.100;6.078;2023-09-19T02:53:11;12.70;99.90
52044;DHT22;38053;53.100;6.078;2023-09-19T02:55:38;12.60;99.90
52044;DHT22;38053;53.100;6.078;2023-09-19T02:58:06;12.60;99.90
52044;DHT22;38053;53.100;6.078;2023-09-19T03:00:42;12.60;99.90
52044;DHT22;38053;53.100;6.078;2023-09-19T03:03:08;12.50;99.90
52044;DHT22;38053;53.100;6.078;2023-09-19T03:05:34;12.60;99.90
52044;DHT22;38053;53.100;6.078;2023-09-19T03:08:03;12.50;99.90
52044;DHT22;38053;53.100;6.078;2023-09-19T03:10:29;12.50;99.90
52044;DHT22;38053;53.100;6.078;2023-09-19T03:13:02;12.50;99.90
52044;DHT22;38053;53.100;6.078;2023-09-19T03:15:27;12.50;99.90
52044;DHT22;38053;53.100;6.078;2023-09-19T03:17:53;12.50;99.90
52044;DHT22;38053;53.100;6.078;2023-09-19T03:20:19;12.50;99.90
52044;DHT22;38053;53.100;6.078;2023-09-19T03:22:46;12.50;99.90
52044;DHT22;38053;53.100;6.078;2023-09-19T03:25:12;12.50;99.90
52044;DHT22;38053;53.100;6.078;2023-09-19T03:27:38;12.60;99.90
52044;DHT22;38053;53.100;6.078;2023-09-19T03:30:05;12.60;99.90
52044;DHT22;38053;53.100;6.078;2023-09-19T03:32:37;12.60;99.90
52044;DHT22;38053;53.100;6.078;2023-09-19T03:35:08;12.60;99.90
52044;DHT22;38053;53.100;6.078;2023-09-19T03:37:40;12.60;99.90
52044;DHT22;38053;53.100;6.078;2023-09-19T03:40:08;12.60;99.90
52044;DHT22;38053;53.100;6.078;2023-09-19T03:42:38;12.60;99.90
52044;DHT22;38053;53.100;6.078;2023-09-19T03:45:04;12.70;99.90
52044;DHT22;38053;53.100;6.078;2023-09-19T03:47:31;12.70;99.90
52044;DHT22;38053;53.100;6.078;2023-09-19T03:49:56;12.70;99.90
52044;DHT22;38053;53.100;6.078;2023-09-19T03:52:22;12.80;99.90
52044;DHT22;38053;53.100;6.078;2023-09-19T03:54:48;12.80;99.90
52044;DHT22;38053;53.100;6.078;2023-09-19T03:57:14;12.80;99.90
52044;DHT22;38053;53.100;6.078;2023-09-19T03:59:42;12.80;99.90
52044;DHT22;38053;53.100;6.078;2023-09-19T04:02:08;12.70;99.90
52044;DHT22;38053;53.100;6.078;2023-09-19T04:04:50;12.70;99.90
52044;DHT22;38053;53.100;6.078;2023-09-19T04:07:16;12.70;99.90
52044;DHT22;38053;53.100;6.078;2023-09-19T04:09:42;12.80;99.90
52044;DHT22;38053;53.100;6.078;2023-09-19T04:12:08;12.70;99.90
52044;DHT22;38053;53.100;6.078;2023-09-19T04:14:36;12.80;99.90
52044;DHT22;38053;53.100;6.078;2023-09-19T04:17:05;12.80;99.90
52044;DHT22;38053;53.100;6.078;2023-09-19T04:19:31;12.90;99.90
52044;DHT22;38053;53.100;6.078;2023-09-19T04:21:57;12.90;99.90
52044;DHT22;38053;53.100;6.078;2023-09-19T04:24:23;12.90;99.90
52044;DHT22;38053;53.100;6.078;2023-09-19T04:26:48;13.00;99.90
52044;DHT22;38053;53.100;6.078;2023-09-19T04:29:14;13.00;99.90
52044;DHT22;38053;53.100;6.078;2023-09-19T04:31:40;13.00;99.90
52044;DHT22;38053;53.100;6.078;2023-09-19T04:34:09;13.00;99.90
52044;DHT22;38053;53.100;6.078;2023-09-19T04:36:35;13.10;99.90
52044;DHT22;38053;53.100;6.078;2023-09-19T04:39:03;13.10;99.90
52044;DHT22;38053;53.100;6.078;2023-09-19T04:41:30;13.10;99.90
52044;DHT22;38053;53.100;6.078;2023-09-19T04:43:56;13.10;99.90
52044;DHT22;38053;53.100;6.078;2023-09-19T04:46:22;13.10;99.90
52044;DHT22;38053;53.100;6.078;2023-09-19T04:48:47;13.10;99.90
52044;DHT22;38053;53.100;6.078;2023-09-19T04:51:13;13.10;99.90
52044;DHT22;38053;53.100;6.078;2023-09-19T04:53:40;13.10;99.90
52044;DHT22;38053;53.100;6.078;2023-09-19T04:56:06;13.10;99.90
52044;DHT22;38053;53.100;6.078;2023-09-19T04:58:33;13.10;99.90
52044;DHT22;38053;53.100;6.078;2023-09-19T05:00:59;13.20;99.90
52044;DHT22;38053;53.100;6.078;2023-09-19T05:03:25;13.20;99.90
52044;DHT22;38053;53.100;6.078;2023-09-19T05:05:51;13.20;99.90
52044;DHT22;38053;53.100;6.078;2023-09-19T05:08:16;13.20;99.90
52044;DHT22;38053;53.100;6.078;2023-09-19T05:10:42;13.20;99.90
52044;DHT22;38053;53.100;6.078;2023-09-19T05:13:08;13.30;99.90
52044;DHT22;38053;53.100;6.078;2023-09-19T05:15:34;13.30;99.90
52044;DHT22;38053;53.100;6.078;2023-09-19T05:18:01;13.30;99.90
52044;DHT22;38053;53.100;6.078;2023-09-19T05:20:27;13.30;99.90
52044;DHT22;38053;53.100;6.078;2023-09-19T05:23:00;13.30;99.90
52044;DHT22;38053;53.100;6.078;2023-09-19T05:25:33;13.40;99.90
52044;DHT22;38053;53.100;6.078;2023-09-19T05:28:02;13.40;99.90
52044;DHT22;38053;53.100;6.078;2023-09-19T05:30:29;13.40;99.90
52044;DHT22;38053;53.100;6.078;2023-09-19T05:32:55;13.50;99.90
52044;DHT22;38053;53.100;6.078;2023-09-19T05:35:22;13.50;99.90
52044;DHT22;38053;53.100;6.078;2023-09-19T05:37:50;13.40;99.90
52044;DHT22;38053;53.100;6.078;2023-09-19T05:40:19;13.50;99.90
52044;DHT22;38053;53.100;6.078;2023-09-19T05:42:45;13.50;99.90
52044;DHT22;38053;53.100;6.078;2023-09-19T05:45:12;13.50;99.90
52044;DHT22;38053;53.100;6.078;2023-09-19T05:47:41;13.50;99.90
52044;DHT22;38053;53.100;6.078;2023-09-19T05:50:09;13.60;99.90
52044;DHT22;38053;53.100;6.078;2023-09-19T05:52:38;13.60;99.90
52044;DHT22;38053;53.100;6.078;2023-09-19T05:55:07;13.60;99.90
52044;DHT22;38053;53.100;6.078;2023-09-19T05:57:37;13.60;99.90
52044;DHT22;38053;53.100;6.078;2023-09-19T06:00:08;13.60;99.90
52044;DHT22;38053;53.100;6.078;2023-09-19T06:02:38;13.70;99.90
52044;DHT22;38053;53.100;6.078;2023-09-19T06:05:06;13.70;99.90
52044;DHT22;38053;53.100;6.078;2023-09-19T06:07:32;13.70;99.90
52044;DHT22;38053;53.100;6.078;2023-09-19T06:10:06;13.70;99.90
52044;DHT22;38053;53.100;6.078;2023-09-19T06:12:39;13.70;99.90
52044;DHT22;38053;53.100;6.078;2023-09-19T06:15:05;13.70;99.90
52044;DHT22;38053;53.100;6.078;2023-09-19T06:17:34;13.80;99.90
52044;DHT22;38053;53.100;6.078;2023-09-19T06:20:07;13.80;99.90
52044;DHT22;38053;53.100;6.078;2023-09-19T06:22:44;13.80;99.90
52044;DHT22;38053;53.100;6.078;2023-09-19T06:25:11;13.80;99.90
52044;DHT22;38053;53.100;6.078;2023-09-19T06:27:41;13.90;99.90
52044;DHT22;38053;53.100;6.078;2023-09-19T06:30:08;13.90;99.90
52044;DHT22;38053;53.100;6.078;2023-09-19T06:32:35;13.90;99.90
52044;DHT22;38053;53.100;6.078;2023-09-19T06:35:00;13.90;99.90
52044;DHT22;38053;53.100;6.078;2023-09-19T06:37:30;13.90;99.90
52044;DHT22;38053;53.100;6.078;2023-09-19T06:39:56;13.90;99.90
52044;DHT22;38053;53.100;6.078;2023-09-19T06:42:22;14.00;99.90
52044;DHT22;38053;53.100;6.078;2023-09-19T06:44:49;14.00;99.90
52044;DHT22;38053;53.100;6.078;2023-09-19T06:47:14;14.10;99.90
52044;DHT22;38053;53.100;6.078;2023-09-19T06:49:41;14.10;99.90
52044;DHT22;38053;53.100;6.078;2023-09-19T06:52:10;14.10;99.90
52044;DHT22;38053;53.100;6.078;2023-09-19T06:54:36;14.20;99.90
52044;DHT22;38053;53.100;6.078;2023-09-19T06:57:03;14.20;99.90
52044;DHT22;38053;53.100;6.078;2023-09-19T06:59:29;14.20;99.90
52044;DHT22;38053;53.100;6.078;2023-09-19T07:01:55;14.30;99.90
52044;DHT22;38053;53.100;6.078;2023-09-19T07:04:20;14.40;99.90
52044;DHT22;38053;53.100;6.078;2023-09-19T07:06:50;14.50;99.90
52044;DHT22;38053;53.100;6.078;2023-09-19T07:09:16;14.60;99.90
52044;DHT22;38053;53.100;6.078;2023-09-19T07:11:42;14.60;99.90
52044;DHT22;38053;53.100;6.078;2023-09-19T07:14:08;14.70;99.90
52044;DHT22;38053;53.100;6.078;2023-09-19T07:16:38;14.80;99.90
52044;DHT22;38053;53.100;6.078;2023-09-19T07:19:05;14.90;99.90
52044;DHT22;38053;53.100;6.078;2023-09-19T07:21:32;15.00;99.90
52044;DHT22;38053;53.100;6.078;2023-09-19T07:24:00;15.00;99.90
52044;DHT22;38053;53.100;6.078;2023-09-19T07:26:26;15.10;99.90
52044;DHT22;38053;53.100;6.078;2023-09-19T07:28:53;15.10;99.90
52044;DHT22;38053;53.100;6.078;2023-09-19T07:31:21;15.10;99.90
52044;DHT22;38053;53.100;6.078;2023-09-19T07:33:48;15.10;99.90
52044;DHT22;38053;53.100;6.078;2023-09-19T07:36:15;15.00;99.90
52044;DHT22;38053;53.100;6.078;2023-09-19T07:38:44;15.10;99.90
52044;DHT22;38053;53.100;6.078;2023-09-19T07:41:10;15.10;99.90
52044;DHT22;38053;53.100;6.078;2023-09-19T07:43:38;15.00;99.90
52044;DHT22;38053;53.100;6.078;2023-09-19T07:46:08;15.10;99.90
52044;DHT22;38053;53.100;6.078;2023-09-19T07:48:38;15.10;99.90
52044;DHT22;38053;53.100;6.078;2023-09-19T07:51:22;15.10;99.90
52044;DHT22;38053;53.100;6.078;2023-09-19T07:53:51;15.10;99.90
52044;DHT22;38053;53.100;6.078;2023-09-19T07:56:20;15.20;99.90
52044;DHT22;38053;53.100;6.078;2023-09-19T07:58:48;15.20;99.90
52044;DHT22;38053;53.100;6.078;2023-09-19T08:01:14;15.20;99.90
52044;DHT22;38053;53.100;6.078;2023-09-19T08:03:44;15.30;99.90
52044;DHT22;38053;53.100;6.078;2023-09-19T08:06:10;15.30;99.90
52044;DHT22;38053;53.100;6.078;2023-09-19T08:08:37;15.30;99.90
52044;DHT22;38053;53.100;6.078;2023-09-19T08:11:04;15.40;99.90
52044;DHT22;38053;53.100;6.078;2023-09-19T08:13:39;15.40;99.90
52044;DHT22;38053;53.100;6.078;2023-09-19T08:16:17;15.50;99.90
52044;DHT22;38053;53.100;6.078;2023-09-19T08:18:48;15.50;99.90
52044;DHT22;38053;53.100;6.078;2023-09-19T08:21:18;15.50;99.90
52044;DHT22;38053;53.100;6.078;2023-09-19T08:23:47;15.50;99.90
52044;DHT22;38053;53.100;6.078;2023-09-19T08:26:13;15.50;99.90
52044;DHT22;38053;53.100;6.078;2023-09-19T08:28:38;15.50;99.90
52044;DHT22;38053;53.100;6.078;2023-09-19T08:31:11;15.60;99.90
52044;DHT22;38053;53.100;6.078;2023-09-19T08:33:37;15.60;99.90
52044;DHT22;38053;53.100;6.078;2023-09-19T08:36:04;15.70;99.90
52044;DHT22;38053;53.100;6.078;2023-09-19T08:38:34;15.70;99.90
52044;DHT22;38053;53.100;6.078;2023-09-19T08:41:05;15.80;99.90
52044;DHT22;38053;53.100;6.078;2023-09-19T08:43:31;15.80;99.90
52044;DHT22;38053;53.100;6.078;2023-09-19T08:48:31;15.90;99.90
52044;DHT22;38053;53.100;6.078;2023-09-19T08:51:03;16.00;99.90
52044;DHT22;38053;53.100;6.078;2023-09-19T08:56:29;16.20;99.90
52044;DHT22;38053;53.100;6.078;2023-09-19T08:59:02;16.30;99.90
52044;DHT22;38053;53.100;6.078;2023-09-19T09:01:37;16.40;99.90
52044;DHT22;38053;53.100;6.078;2023-09-19T09:04:08;16.40;99.90
52044;DHT22;38053;53.100;6.078;2023-09-19T09:06:34;16.40;99.90
52044;DHT22;38053;53.100;6.078;2023-09-19T09:09:02;16.50;99.90
52044;DHT22;38053;53.100;6.078;2023-09-19T09:11:28;16.60;99.90
52044;DHT22;38053;53.100;6.078;2023-09-19T09:13:54;16.60;99.90
52044;DHT22;38053;53.100;6.078;2023-09-19T09:16:21;16.60;99.90
52044;DHT22;38053;53.100;6.078;2023-09-19T09:18:50;16.60;99.90
52044;DHT22;38053;53.100;6.078;2023-09-19T09:21:21;16.60;99.90
52044;DHT22;38053;53.100;6.078;2023-09-19T09:23:49;16.60;99.90
52044;DHT22;38053;53.100;6.078;2023-09-19T09:26:17;16.60;99.90
52044;DHT22;38053;53.100;6.078;2023-09-19T09:28:49;16.70;99.90
52044;DHT22;38053;53.100;6.078;2023-09-19T09:31:25;16.90;99.90
52044;DHT22;38053;53.100;6.078;2023-09-19T09:33:55;17.00;99.90
52044;DHT22;38053;53.100;6.078;2023-09-19T09:36:38;17.00;99.90
52044;DHT22;38053;53.100;6.078;2023-09-19T09:39:07;17.00;99.90
52044;DHT22;38053;53.100;6.078;2023-09-19T09:41:50;17.00;99.90
52044;DHT22;38053;53.100;6.078;2023-09-19T09:44:19;17.00;99.90
52044;DHT22;38053;53.100;6.078;2023-09-19T09:46:48;17.00;99.90
52044;DHT22;38053;53.100;6.078;2023-09-19T09:49:24;17.10;99.90
52044;DHT22;38053;53.100;6.078;2023-09-19T09:54:27;17.00;99.90
52044;DHT22;38053;53.100;6.078;2023-09-19T09:57:01;17.10;99.90
52044;DHT22;38053;53.100;6.078;2023-09-19T10:02:34;17.10;99.90
52044;DHT22;38053;53.100;6.078;2023-09-19T10:08:11;17.10;99.90
52044;DHT22;38053;53.100;6.078;2023-09-19T10:10:39;17.20;99.90
52044;DHT22;38053;53.100;6.078;2023-09-19T10:13:09;17.30;99.90
52044;DHT22;38053;53.100;6.078;2023-09-19T10:15:38;17.50;99.90
52044;DHT22;38053;53.100;6.078;2023-09-19T10:18:07;17.70;99.90
52044;DHT22;38053;53.100;6.078;2023-09-19T10:20:37;17.80;99.90
52044;DHT22;38053;53.100;6.078;2023-09-19T10:23:10;17.80;99.90
52044;DHT22;38053;53.100;6.078;2023-09-19T10:25:38;17.80;99.90
52044;DHT22;38053;53.100;6.078;2023-09-19T10:28:11;17.80;99.90
52044;DHT22;38053;53.100;6.078;2023-09-19T10:30:38;17.80;99.90
52044;DHT22;38053;53.100;6.078;2023-09-19T10:33:09;17.70;99.90
52044;DHT22;38053;53.100;6.078;2023-09-19T10:35:38;17.60;99.90
52044;DHT22;38053;53.100;6.078;2023-09-19T10:38:10;17.60;99.90
52044;DHT22;38053;53.100;6.078;2023-09-19T10:40:37;17.60;99.90
52044;DHT22;38053;53.100;6.078;2023-09-19T10:43:21;17.70;99.90
52044;DHT22;38053;53.100;6.078;2023-09-19T10:45:50;17.70;99.90
52044;DHT22;38053;53.100;6.078;2023-09-19T10:48:18;17.60;99.90
52044;DHT22;38053;53.100;6.078;2023-09-19T10:50:58;17.60;99.90
52044;DHT22;38053;53.100;6.078;2023-09-19T10:56:16;17.30;99.90
52044;DHT22;38053;53.100;6.078;2023-09-19T10:58:45;17.20;99.90
52044;DHT22;38053;53.100;6.078;2023-09-19T11:01:11;17.20;99.90
52044;DHT22;38053;53.100;6.078;2023-09-19T11:03:41;17.20;99.90
52044;DHT22;38053;53.100;6.078;2023-09-19T11:11:41;17.30;99.90
52044;DHT22;38053;53.100;6.078;2023-09-19T11:30:51;18.10;99.90
52044;DHT22;38053;53.100;6.078;2023-09-19T11:46:55;18.10;99.90
52044;DHT22;38053;53.100;6.078;2023-09-19T11:49:30;18.00;99.90
52044;DHT22;38053;53.100;6.078;2023-09-19T11:52:01;17.80;99.90
52044;DHT22;38053;53.100;6.078;2023-09-19T11:54:28;17.70;99.90
52044;DHT22;38053;53.100;6.078;2023-09-19T11:56:57;17.60;99.90
52044;DHT22;38053;53.100;6.078;2023-09-19T11:59:26;17.70;99.90
52044;DHT22;38053;53.100;6.078;2023-09-19T12:02:07;17.70;99.90
52044;DHT22;38053;53.100;6.078;2023-09-19T12:04:41;17.60;99.90
52044;DHT22;38053;53.100;6.078;2023-09-19T12:07:13;17.50;99.90
52044;DHT22;38053;53.100;6.078;2023-09-19T12:09:51;17.40;99.90
52044;DHT22;38053;53.100;6.078;2023-09-19T12:12:28;17.30;99.90
52044;DHT22;38053;53.100;6.078;2023-09-19T12:14:56;17.20;99.90
52044;DHT22;38053;53.100;6.078;2023-09-19T12:17:43;17.00;99.90
52044;DHT22;38053;53.100;6.078;2023-09-19T12:20:10;16.90;99.90
52044;DHT22;38053;53.100;6.078;2023-09-19T12:22:43;16.80;99.90
52044;DHT22;38053;53.100;6.078;2023-09-19T12:25:10;17.00;99.90
52044;DHT22;38053;53.100;6.078;2023-09-19T12:27:47;17.10;99.90
52044;DHT22;38053;53.100;6.078;2023-09-19T12:30:14;17.20;99.90
52044;DHT22;38053;53.100;6.078;2023-09-19T12:32:40;17.30;99.90
52044;DHT22;38053;53.100;6.078;2023-09-19T12:35:07;17.40;99.90
52044;DHT22;38053;53.100;6.078;2023-09-19T12:37:44;17.50;99.90
52044;DHT22;38053;53.100;6.078;2023-09-19T12:40:15;17.50;99.90
52044;DHT22;38053;53.100;6.078;2023-09-19T12:42:48;17.50;99.90
52044;DHT22;38053;53.100;6.078;2023-09-19T12:45:15;17.50;99.90
52044;DHT22;38053;53.100;6.078;2023-09-19T12:51:09;17.40;99.90
52044;DHT22;38053;53.100;6.078;2023-09-19T12:53:43;17.40;99.90
52044;DHT22;38053;53.100;6.078;2023-09-19T12:56:16;17.40;99.90
52044;DHT22;38053;53.100;6.078;2023-09-19T12:58:56;17.40;99.90
52044;DHT22;38053;53.100;6.078;2023-09-19T13:01:24;17.40;99.90
52044;DHT22;38053;53.100;6.078;2023-09-19T13:04:18;17.30;99.90
52044;DHT22;38053;53.100;6.078;2023-09-19T13:06:51;17.20;99.90
52044;DHT22;38053;53.100;6.078;2023-09-19T13:09:19;17.00;99.90
52044;DHT22;38053;53.100;6.078;2023-09-19T13:12:00;16.90;99.90
52044;DHT22;38053;53.100;6.078;2023-09-19T13:14:29;16.70;99.90
52044;DHT22;38053;53.100;6.078;2023-09-19T13:17:05;16.70;99.90
52044;DHT22;38053;53.100;6.078;2023-09-19T13:19:46;16.70;99.90
52044;DHT22;38053;53.100;6.078;2023-09-19T13:22:41;16.70;99.90
52044;DHT22;38053;53.100;6.078;2023-09-19T13:25:10;16.80;99.90
52044;DHT22;38053;53.100;6.078;2023-09-19T13:27:53;16.90;99.90
52044;DHT22;38053;53.100;6.078;2023-09-19T13:30:27;17.10;99.90
52044;DHT22;38053;53.100;6.078;2023-09-19T13:33:09;17.10;99.90
52044;DHT22;38053;53.100;6.078;2023-09-19T13:35:36;17.20;99.90
52044;DHT22;38053;53.100;6.078;2023-09-19T13:38:08;17.40;99.90
52044;DHT22;38053;53.100;6.078;2023-09-19T13:40:41;17.40;99.90
52044;DHT22;38053;53.100;6.078;2023-09-19T13:43:09;17.50;99.90
52044;DHT22;38053;53.100;6.078;2023-09-19T13:45:36;17.70;99.90
52044;DHT22;38053;53.100;6.078;2023-09-19T13:48:02;17.80;99.90
52044;DHT22;38053;53.100;6.078;2023-09-19T13:50:28;17.90;99.90
52044;DHT22;38053;53.100;6.078;2023-09-19T13:52:56;17.90;99.90
52044;DHT22;38053;53.100;6.078;2023-09-19T13:55:23;17.90;99.90
52044;DHT22;38053;53.100;6.078;2023-09-19T13:57:53;17.80;99.90
52044;DHT22;38053;53.100;6.078;2023-09-19T14:00:22;17.80;99.90
52044;DHT22;38053;53.100;6.078;2023-09-19T14:02:48;17.80;99.90
52044;DHT22;38053;53.100;6.078;2023-09-19T14:05:15;17.70;99.90
52044;DHT22;38053;53.100;6.078;2023-09-19T14:07:49;17.70;99.90
52044;DHT22;38053;53.100;6.078;2023-09-19T14:10:18;17.70;99.90
52044;DHT22;38053;53.100;6.078;2023-09-19T14:12:47;17.60;99.90
52044;DHT22;38053;53.100;6.078;2023-09-19T14:15:13;17.60;99.90
52044;DHT22;38053;53.100;6.078;2023-09-19T14:17:39;17.60;99.90
52044;DHT22;38053;53.100;6.078;2023-09-19T14:20:10;17.60;99.90
52044;DHT22;38053;53.100;6.078;2023-09-19T14:22:37;17.50;99.90
52044;DHT22;38053;53.100;6.078;2023-09-19T14:25:06;17.30;99.90
52044;DHT22;38053;53.100;6.078;2023-09-19T14:27:32;17.20;99.90
52044;DHT22;38053;53.100;6.078;2023-09-19T14:30:10;17.20;99.90
52044;DHT22;38053;53.100;6.078;2023-09-19T14:32:36;17.10;99.90
52044;DHT22;38053;53.100;6.078;2023-09-19T14:35:03;17.10;99.90
52044;DHT22;38053;53.100;6.078;2023-09-19T14:37:32;17.10;99.90
52044;DHT22;38053;53.100;6.078;2023-09-19T14:40:01;17.10;99.90
52044;DHT22;38053;53.100;6.078;2023-09-19T14:42:28;17.20;99.90
52044;DHT22;38053;53.100;6.078;2023-09-19T14:44:54;17.20;99.90
52044;DHT22;38053;53.100;6.078;2023-09-19T14:47:20;17.30;99.90
52044;DHT22;38053;53.100;6.078;2023-09-19T14:49:46;17.30;99.90
52044;DHT22;38053;53.100;6.078;2023-09-19T14:52:13;17.30;99.90
52044;DHT22;38053;53.100;6.078;2023-09-19T14:54:41;17.30;99.90
52044;DHT22;38053;53.100;6.078;2023-09-19T14:57:07;17.30;99.90
52044;DHT22;38053;53.100;6.078;2023-09-19T14:59:34;17.30;99.90
52044;DHT22;38053;53.100;6.078;2023-09-19T15:02:05;17.30;99.90
52044;DHT22;38053;53.100;6.078;2023-09-19T15:04:33;17.30;99.90
52044;DHT22;38053;53.100;6.078;2023-09-19T15:06:59;17.20;99.90
52044;DHT22;38053;53.100;6.078;2023-09-19T15:09:26;17.30;99.90
52044;DHT22;38053;53.100;6.078;2023-09-19T15:11:53;17.20;99.90
52044;DHT22;38053;53.100;6.078;2023-09-19T15:14:19;17.10;99.90
52044;DHT22;38053;53.100;6.078;2023-09-19T15:16:45;17.00;99.90
52044;DHT22;38053;53.100;6.078;2023-09-19T15:19:11;16.90;99.90
52044;DHT22;38053;53.100;6.078;2023-09-19T15:21:36;16.80;99.90
52044;DHT22;38053;53.100;6.078;2023-09-19T15:24:03;16.70;99.90
52044;DHT22;38053;53.100;6.078;2023-09-19T15:26:29;16.70;99.90
52044;DHT22;38053;53.100;6.078;2023-09-19T15:28:55;16.70;99.90
52044;DHT22;38053;53.100;6.078;2023-09-19T15:31:22;16.70;99.90
52044;DHT22;38053;53.100;6.078;2023-09-19T15:33:47;16.70;99.90
52044;DHT22;38053;53.100;6.078;2023-09-19T15:36:17;16.70;99.90
52044;DHT22;38053;53.100;6.078;2023-09-19T15:41:20;16.70;99.90
52044;DHT22;38053;53.100;6.078;2023-09-19T15:43:46;16.70;99.90
52044;DHT22;38053;53.100;6.078;2023-09-19T15:46:12;16.70;99.90
52044;DHT22;38053;53.100;6.078;2023-09-19T15:48:39;16.70;99.90
52044;DHT22;38053;53.100;6.078;2023-09-19T15:51:05;16.60;99.90
52044;DHT22;38053;53.100;6.078;2023-09-19T15:53:46;16.60;99.90
52044;DHT22;38053;53.100;6.078;2023-09-19T15:56:12;16.50;99.90
52044;DHT22;38053;53.100;6.078;2023-09-19T15:58:43;16.50;99.90
52044;DHT22;38053;53.100;6.078;2023-09-19T16:01:09;16.40;99.90
52044;DHT22;38053;53.100;6.078;2023-09-19T16:03:41;16.40;99.90
52044;DHT22;38053;53.100;6.078;2023-09-19T16:06:13;16.40;99.90
52044;DHT22;38053;53.100;6.078;2023-09-19T16:08:40;16.40;99.90
52044;DHT22;38053;53.100;6.078;2023-09-19T16:11:07;16.40;99.90
52044;DHT22;38053;53.100;6.078;2023-09-19T16:13:34;16.40;99.90
52044;DHT22;38053;53.100;6.078;2023-09-19T16:16:00;16.30;99.90
52044;DHT22;38053;53.100;6.078;2023-09-19T16:18:26;16.30;99.90
52044;DHT22;38053;53.100;6.078;2023-09-19T16:20:52;16.20;99.90
52044;DHT22;38053;53.100;6.078;2023-09-19T16:23:18;16.20;99.90
52044;DHT22;38053;53.100;6.078;2023-09-19T16:25:44;16.10;99.90
52044;DHT22;38053;53.100;6.078;2023-09-19T16:28:11;16.10;99.90
52044;DHT22;38053;53.100;6.078;2023-09-19T16:30:37;16.10;99.90
52044;DHT22;38053;53.100;6.078;2023-09-19T16:33:04;16.00;99.90
52044;DHT22;38053;53.100;6.078;2023-09-19T16:35:31;16.00;99.90
52044;DHT22;38053;53.100;6.078;2023-09-19T16:38:01;15.90;99.90
52044;DHT22;38053;53.100;6.078;2023-09-19T16:40:27;15.90;99.90
52044;DHT22;38053;53.100;6.078;2023-09-19T16:42:53;15.90;99.90
52044;DHT22;38053;53.100;6.078;2023-09-19T16:45:19;15.80;99.90
52044;DHT22;38053;53.100;6.078;2023-09-19T16:47:45;15.80;99.90
52044;DHT22;38053;53.100;6.078;2023-09-19T16:50:10;15.80;99.90
52044;DHT22;38053;53.100;6.078;2023-09-19T16:52:37;15.80;99.90
52044;DHT22;38053;53.100;6.078;2023-09-19T16:55:05;15.80;99.90